Time;durP1;ratioP1;P1;durP2;ratioP2;P2;SDS_P1;SDS_P2;PMS_P1;PMS_P2;Temp;Humidity;BMP_temperature;BMP_pressure;BME280_temperature;BME280_humidity;BME280_pressure;Samples;Min_cycle;Max_cycle;Signal;HPM_P1;HPM_P2
2024/02/21 00:00:28;;;;;;;18.03;7.50;;;9.40;99.90;;;;;;5090517;28;20459;-78
2024/02/21 00:02:55;;;;;;;21.63;10.20;;;9.40;99.90;;;;;;5098986;28;20465;-81
2024/02/21 00:05:21;;;;;;;18.83;9.77;;;9.40;99.90;;;;;;5090676;28;20937;-80
2024/02/21 00:07:48;;;;;;;26.73;9.43;;;9.40;99.90;;;;;;5084738;28;20456;-83
2024/02/21 00:10:17;;;;;;;19.30;9.73;;;9.30;99.90;;;;;;5096994;28;20544;-81
2024/02/21 00:12:43;;;;;;;21.00;9.20;;;9.30;99.90;;;;;;5098262;28;20552;-83
2024/02/21 00:15:10;;;;;;;21.20;9.27;;;9.30;99.90;;;;;;5097942;28;20459;-82
2024/02/21 00:17:37;;;;;;;19.00;11.03;;;9.40;99.90;;;;;;5097310;28;20457;-81
2024/02/21 00:20:05;;;;;;;16.60;10.20;;;9.40;99.90;;;;;;5097961;28;20519;-80
2024/02/21 00:22:33;;;;;;;21.67;10.30;;;9.30;99.90;;;;;;5098350;28;20479;-82
2024/02/21 00:25:00;;;;;;;16.00;9.37;;;9.30;99.90;;;;;;5096698;28;20461;-80
2024/02/21 00:27:28;;;;;;;18.43;9.93;;;9.30;99.90;;;;;;5092289;28;20456;-81
2024/02/21 00:29:55;;;;;;;18.30;9.47;;;9.40;99.90;;;;;;5091704;28;20552;-82
2024/02/21 00:32:22;;;;;;;20.63;9.90;;;9.40;99.90;;;;;;5092377;28;21066;-82
2024/02/21 00:34:49;;;;;;;17.63;8.40;;;9.40;99.90;;;;;;5097580;28;20480;-80
2024/02/21 00:37:15;;;;;;;19.90;9.67;;;9.40;99.90;;;;;;5089016;28;20459;-82
2024/02/21 00:39:43;;;;;;;19.33;9.77;;;9.40;99.90;;;;;;5097842;28;20457;-81
2024/02/21 00:42:10;;;;;;;18.13;9.60;;;9.40;99.90;;;;;;5099038;28;20492;-81
2024/02/21 00:44:38;;;;;;;17.40;8.43;;;9.40;99.90;;;;;;5099433;28;20481;-81
2024/02/21 00:47:05;;;;;;;23.53;8.67;;;9.40;99.90;;;;;;5097679;28;20456;-81
2024/02/21 00:49:31;;;;;;;23.03;10.73;;;9.40;99.90;;;;;;5097590;28;20468;-83
2024/02/21 00:51:58;;;;;;;18.17;9.90;;;9.30;99.90;;;;;;5088378;28;20589;-81
2024/02/21 00:54:25;;;;;;;20.03;10.20;;;9.30;99.90;;;;;;5098633;28;20462;-82
2024/02/21 00:56:52;;;;;;;21.70;9.37;;;9.40;99.90;;;;;;5093340;28;20659;-82
2024/02/21 00:59:19;;;;;;;18.03;9.00;;;9.40;99.90;;;;;;5097395;28;20458;-82
2024/02/21 01:01:47;;;;;;;27.90;11.30;;;9.40;99.90;;;;;;5097396;28;20533;-83
2024/02/21 01:04:14;;;;;;;16.90;10.40;;;9.40;99.90;;;;;;5096269;28;20828;-81
2024/02/21 01:06:43;;;;;;;22.80;9.80;;;9.40;99.90;;;;;;5083053;28;20479;-80
2024/02/21 01:09:11;;;;;;;24.93;9.70;;;9.40;99.90;;;;;;5098453;28;20450;-83
2024/02/21 01:11:37;;;;;;;19.00;9.63;;;9.40;99.90;;;;;;5097761;28;20488;-82
2024/02/21 01:14:04;;;;;;;23.83;10.97;;;9.30;99.90;;;;;;5097118;28;20734;-80
2024/02/21 01:16:31;;;;;;;19.57;9.90;;;9.30;99.90;;;;;;5097513;28;20453;-82
2024/02/21 01:18:59;;;;;;;19.43;9.63;;;9.40;99.90;;;;;;5097729;28;20481;-80
2024/02/21 01:21:26;;;;;;;20.60;10.63;;;9.40;99.90;;;;;;5097236;28;20479;-81
2024/02/21 01:23:53;;;;;;;20.27;10.17;;;9.40;99.90;;;;;;5092779;28;20525;-82
2024/02/21 01:26:19;;;;;;;19.73;9.40;;;9.30;99.90;;;;;;5094583;28;20454;-82
2024/02/21 01:28:46;;;;;;;23.40;9.90;;;9.30;99.90;;;;;;5097697;28;20549;-81
2024/02/21 01:31:14;;;;;;;25.37;11.00;;;9.30;99.90;;;;;;5095858;28;20453;-82
2024/02/21 01:33:42;;;;;;;18.33;9.87;;;9.30;99.90;;;;;;5097082;28;20979;-82
2024/02/21 01:36:10;;;;;;;20.37;10.27;;;9.20;99.90;;;;;;5096948;28;20456;-83
2024/02/21 01:38:37;;;;;;;24.23;10.20;;;9.20;99.90;;;;;;5097326;28;20470;-83
2024/02/21 01:41:04;;;;;;;20.07;10.57;;;9.20;99.90;;;;;;5097165;28;20456;-78
2024/02/21 01:43:31;;;;;;;23.50;10.83;;;9.10;99.90;;;;;;5096786;28;20449;-81
2024/02/21 01:45:58;;;;;;;19.77;8.90;;;9.10;99.90;;;;;;5096227;28;20513;-81
2024/02/21 01:48:26;;;;;;;21.70;9.57;;;9.10;99.90;;;;;;5093389;28;20468;-80
2024/02/21 01:50:55;;;;;;;15.23;9.57;;;9.10;99.90;;;;;;5096918;28;20567;-80
2024/02/21 01:53:26;;;;;;;16.20;9.80;;;9.10;99.90;;;;;;5097394;28;20509;-84
2024/02/21 01:55:53;;;;;;;17.80;9.00;;;9.10;99.90;;;;;;5095051;28;20448;-81
2024/02/21 01:58:21;;;;;;;19.57;8.70;;;9.10;99.90;;;;;;5096728;28;20979;-82
2024/02/21 02:00:49;;;;;;;16.27;8.50;;;9.10;99.90;;;;;;5098376;28;20552;-80
2024/02/21 02:03:16;;;;;;;20.23;10.00;;;9.20;99.90;;;;;;5096690;28;20547;-80
2024/02/21 02:05:45;;;;;;;20.10;10.30;;;9.20;99.90;;;;;;5089301;28;20465;-83
2024/02/21 02:08:12;;;;;;;20.67;8.80;;;9.10;99.90;;;;;;5094028;28;20436;-81
2024/02/21 02:10:42;;;;;;;20.53;9.40;;;9.20;99.90;;;;;;5096784;28;20533;-81
2024/02/21 02:13:09;;;;;;;19.70;9.47;;;9.20;99.90;;;;;;5095625;28;20580;-85
2024/02/21 02:15:39;;;;;;;24.50;9.27;;;9.20;99.90;;;;;;5096218;28;20469;-81
2024/02/21 02:18:06;;;;;;;17.27;8.97;;;9.20;99.90;;;;;;5095753;28;20454;-82
2024/02/21 02:20:33;;;;;;;18.13;8.53;;;9.20;99.90;;;;;;5095651;28;20458;-84
2024/02/21 02:23:01;;;;;;;25.23;8.90;;;9.30;99.90;;;;;;5093690;28;20533;-82
2024/02/21 02:25:29;;;;;;;16.43;8.10;;;9.30;99.90;;;;;;5088136;28;20460;-80
2024/02/21 02:27:56;;;;;;;21.00;9.37;;;9.20;99.90;;;;;;5095772;28;20448;-83
2024/02/21 02:30:22;;;;;;;18.33;9.37;;;9.20;99.90;;;;;;5092766;28;20525;-83
2024/02/21 02:32:49;;;;;;;19.27;9.20;;;9.20;99.90;;;;;;5090284;28;20505;-83
2024/02/21 02:35:16;;;;;;;14.70;8.53;;;9.20;99.90;;;;;;5095342;28;20825;-81
2024/02/21 02:37:49;;;;;;;15.77;10.07;;;9.20;99.90;;;;;;5091213;28;20461;-83
2024/02/21 02:40:16;;;;;;;14.20;8.03;;;9.20;99.90;;;;;;5094772;28;20471;-80
2024/02/21 02:42:44;;;;;;;18.43;9.20;;;9.20;99.90;;;;;;5086775;28;20468;-83
2024/02/21 02:45:11;;;;;;;16.20;10.20;;;9.20;99.90;;;;;;5094363;28;20852;-81
2024/02/21 02:47:40;;;;;;;17.67;10.13;;;9.10;99.90;;;;;;5093716;28;20448;-82
2024/02/21 02:50:08;;;;;;;21.73;9.73;;;9.10;99.90;;;;;;5093843;28;20515;-82
2024/02/21 02:52:35;;;;;;;23.60;9.50;;;9.00;99.90;;;;;;5080488;28;20592;-82
2024/02/21 02:55:02;;;;;;;19.27;9.17;;;8.90;99.90;;;;;;5095564;28;20546;-83
2024/02/21 02:57:28;;;;;;;19.77;9.50;;;9.00;99.90;;;;;;5090536;28;20760;-81
2024/02/21 02:59:57;;;;;;;23.37;9.80;;;9.00;99.90;;;;;;5096885;28;20460;-82
2024/02/21 03:02:24;;;;;;;18.07;8.87;;;9.00;99.90;;;;;;5095109;28;20475;-82
2024/02/21 03:04:51;;;;;;;21.40;9.20;;;8.90;99.90;;;;;;5083444;28;20470;-83
2024/02/21 03:07:18;;;;;;;13.97;8.30;;;9.00;99.90;;;;;;5096325;28;20548;-83
2024/02/21 03:09:45;;;;;;;24.40;9.37;;;9.10;99.90;;;;;;5098287;28;20556;-83
2024/02/21 03:12:12;;;;;;;14.27;8.70;;;9.00;99.90;;;;;;5096842;28;20496;-83
2024/02/21 03:14:38;;;;;;;22.73;9.37;;;9.00;99.90;;;;;;5090607;28;20465;-83
2024/02/21 03:17:07;;;;;;;18.50;8.97;;;8.90;99.90;;;;;;5095777;28;20923;-83
2024/02/21 03:19:33;;;;;;;23.10;8.90;;;9.00;99.90;;;;;;5081532;28;20462;-82
2024/02/21 03:22:00;;;;;;;15.73;8.10;;;9.00;99.90;;;;;;5098081;28;20484;-81
2024/02/21 03:24:28;;;;;;;19.70;8.07;;;9.10;99.90;;;;;;5100636;28;20515;-82
2024/02/21 03:26:55;;;;;;;17.50;8.03;;;9.20;99.90;;;;;;5100352;28;20475;-84
2024/02/21 03:29:22;;;;;;;18.20;8.60;;;9.20;99.90;;;;;;5103021;28;20453;-81
2024/02/21 03:31:49;;;;;;;15.47;8.20;;;9.20;99.90;;;;;;5112283;28;20457;-83
2024/02/21 03:34:17;;;;;;;18.53;8.43;;;9.20;99.90;;;;;;5103484;28;20467;-79
2024/02/21 03:36:44;;;;;;;13.87;8.70;;;9.20;99.90;;;;;;5097866;28;20456;-81
2024/02/21 03:39:11;;;;;;;14.27;8.00;;;9.20;99.90;;;;;;5098763;28;20882;-81
2024/02/21 03:41:38;;;;;;;16.63;8.17;;;9.20;99.90;;;;;;5098783;28;20487;-82
2024/02/21 03:44:05;;;;;;;20.63;9.73;;;9.20;99.90;;;;;;5099389;28;20963;-81
2024/02/21 03:46:32;;;;;;;16.60;9.23;;;9.20;99.90;;;;;;5093554;28;20835;-81
2024/02/21 03:48:59;;;;;;;20.07;9.23;;;9.20;99.90;;;;;;5095482;28;20457;-82
2024/02/21 03:51:27;;;;;;;14.80;7.80;;;9.20;99.90;;;;;;5099276;28;20484;-82
2024/02/21 03:53:54;;;;;;;19.97;7.90;;;9.20;99.90;;;;;;5098078;28;20488;-82
2024/02/21 03:56:21;;;;;;;15.80;8.27;;;9.20;99.90;;;;;;5097845;28;20521;-80
2024/02/21 03:58:48;;;;;;;18.47;9.43;;;9.20;99.90;;;;;;5098920;28;20457;-81
2024/02/21 04:01:17;;;;;;;19.67;9.57;;;9.20;99.90;;;;;;5098788;28;20535;-82
2024/02/21 04:03:45;;;;;;;14.53;7.13;;;9.20;99.90;;;;;;5097897;28;20962;-82
2024/02/21 04:06:10;;;;;;;17.67;8.03;;;9.30;99.90;;;;;;5097581;28;20532;-82
2024/02/21 04:08:39;;;;;;;18.20;8.07;;;9.40;99.90;;;;;;5097637;28;20479;-82
2024/02/21 04:11:06;;;;;;;18.27;7.90;;;9.40;99.90;;;;;;5097905;28;20650;-81
2024/02/21 04:13:33;;;;;;;15.97;8.90;;;9.40;99.90;;;;;;5097954;28;20493;-83
2024/02/21 04:16:01;;;;;;;15.67;9.47;;;9.40;99.90;;;;;;5096968;28;20452;-82
2024/02/21 04:18:27;;;;;;;14.63;8.57;;;9.40;99.90;;;;;;5089349;28;20472;-79
2024/02/21 04:20:54;;;;;;;22.20;8.27;;;9.40;99.90;;;;;;5093305;28;20476;-82
2024/02/21 04:23:21;;;;;;;18.20;8.70;;;9.40;99.90;;;;;;5088001;28;20481;-81
2024/02/21 04:25:49;;;;;;;15.33;7.67;;;9.40;99.90;;;;;;5096193;28;20457;-81
2024/02/21 04:28:16;;;;;;;16.10;9.03;;;9.40;99.90;;;;;;5098345;28;20474;-79
2024/02/21 04:30:43;;;;;;;15.33;9.60;;;9.30;99.90;;;;;;5098254;28;20461;-81
2024/02/21 04:33:10;;;;;;;17.00;7.90;;;9.30;99.90;;;;;;5097952;28;20495;-82
2024/02/21 04:35:38;;;;;;;13.30;8.53;;;9.30;99.90;;;;;;5095766;28;20937;-81
2024/02/21 04:38:04;;;;;;;23.83;8.63;;;9.30;99.90;;;;;;5082943;28;20477;-79
2024/02/21 04:40:32;;;;;;;16.43;7.67;;;9.30;99.90;;;;;;5097128;28;20991;-82
2024/02/21 04:43:00;;;;;;;16.60;8.10;;;9.30;99.90;;;;;;5097219;28;20857;-79
2024/02/21 04:45:27;;;;;;;13.90;8.30;;;9.40;99.90;;;;;;5089086;28;21008;-80
2024/02/21 04:47:53;;;;;;;14.50;8.00;;;9.40;99.90;;;;;;5097517;28;20537;-83
2024/02/21 04:50:20;;;;;;;14.83;7.60;;;9.40;99.90;;;;;;5097237;28;20480;-81
2024/02/21 04:52:47;;;;;;;14.10;7.73;;;9.40;99.90;;;;;;5097274;28;20938;-81
2024/02/21 04:55:14;;;;;;;15.00;6.20;;;9.40;99.90;;;;;;5086454;28;20549;-82
2024/02/21 04:57:41;;;;;;;11.57;7.10;;;9.40;99.90;;;;;;5097105;28;20520;-81
2024/02/21 05:00:10;;;;;;;16.63;7.73;;;9.40;99.90;;;;;;5098146;28;20532;-83
2024/02/21 05:02:37;;;;;;;12.80;6.33;;;9.40;99.90;;;;;;5098211;28;20481;-81
2024/02/21 05:05:05;;;;;;;13.43;7.70;;;9.30;99.90;;;;;;5097182;28;20458;-81
2024/02/21 05:07:32;;;;;;;14.40;6.90;;;9.30;99.90;;;;;;5097108;28;20445;-82
2024/02/21 05:09:58;;;;;;;14.20;7.00;;;9.30;99.90;;;;;;5097101;28;20458;-83
2024/02/21 05:12:25;;;;;;;13.47;6.20;;;9.30;99.90;;;;;;5095541;28;20473;-81
2024/02/21 05:14:52;;;;;;;14.83;7.30;;;9.30;99.90;;;;;;5096301;28;20499;-83
2024/02/21 05:17:20;;;;;;;18.20;7.30;;;9.30;99.90;;;;;;5096015;28;20464;-83
2024/02/21 05:19:47;;;;;;;13.40;6.30;;;9.30;99.90;;;;;;5096807;28;20496;-83
2024/02/21 05:22:14;;;;;;;10.93;6.00;;;9.30;99.90;;;;;;5097245;28;20532;-81
2024/02/21 05:24:41;;;;;;;14.87;7.00;;;9.30;99.90;;;;;;5097803;28;20461;-82
2024/02/21 05:27:07;;;;;;;8.50;5.60;;;9.30;99.90;;;;;;5096191;28;20461;-82
2024/02/21 05:29:35;;;;;;;16.20;6.47;;;9.40;99.90;;;;;;5094155;28;20461;-80
2024/02/21 05:32:02;;;;;;;12.60;6.20;;;9.40;99.90;;;;;;5099331;28;20519;-83
2024/02/21 05:34:30;;;;;;;11.23;6.40;;;9.40;99.90;;;;;;5093722;28;20493;-83
2024/02/21 05:36:59;;;;;;;7.70;5.60;;;9.30;99.90;;;;;;5096550;28;20885;-82
2024/02/21 05:39:26;;;;;;;11.90;6.20;;;9.40;99.90;;;;;;5093328;28;20451;-81
2024/02/21 05:41:53;;;;;;;10.73;5.97;;;9.40;99.90;;;;;;5088787;28;20512;-80
2024/02/21 05:44:22;;;;;;;12.87;5.80;;;9.40;99.90;;;;;;5099637;28;20473;-80
2024/02/21 05:46:48;;;;;;;16.33;6.30;;;9.40;99.90;;;;;;5101685;28;20471;-81
2024/02/21 05:49:15;;;;;;;11.90;6.20;;;9.40;99.90;;;;;;5099819;28;20544;-81
2024/02/21 05:51:43;;;;;;;14.07;6.33;;;9.40;99.90;;;;;;5083570;28;20477;-82
2024/02/21 05:54:10;;;;;;;9.60;5.70;;;9.40;99.90;;;;;;5092672;28;20491;-81
2024/02/21 05:56:37;;;;;;;11.77;5.53;;;9.30;99.90;;;;;;5094767;28;20468;-79
2024/02/21 05:59:04;;;;;;;8.97;5.33;;;9.30;99.90;;;;;;5103185;28;20449;-82
2024/02/21 06:01:31;;;;;;;12.27;5.63;;;9.30;99.90;;;;;;5099090;28;20477;-80
2024/02/21 06:03:57;;;;;;;13.33;5.93;;;9.40;99.90;;;;;;5088454;28;20452;-80
2024/02/21 06:06:24;;;;;;;9.60;5.00;;;9.40;99.90;;;;;;5083474;28;20480;-82
2024/02/21 06:08:53;;;;;;;11.30;5.33;;;9.30;99.90;;;;;;5097623;28;20544;-80
2024/02/21 06:11:19;;;;;;;11.13;5.77;;;9.40;99.90;;;;;;5102168;28;20455;-81
2024/02/21 06:13:46;;;;;;;15.67;8.67;;;9.40;99.90;;;;;;5101189;28;20493;-80
2024/02/21 06:16:13;;;;;;;10.10;7.00;;;9.30;99.90;;;;;;5101618;28;20463;-80
2024/02/21 06:18:40;;;;;;;10.60;5.10;;;9.40;99.90;;;;;;5098637;28;20472;-79
2024/02/21 06:21:07;;;;;;;9.67;6.30;;;9.40;99.90;;;;;;5093640;28;20857;-81
2024/02/21 06:23:33;;;;;;;11.97;4.77;;;9.40;99.90;;;;;;5103649;28;20978;-81
2024/02/21 06:26:02;;;;;;;12.60;4.63;;;9.40;99.90;;;;;;5102111;28;20465;-80
2024/02/21 06:28:28;;;;;;;8.10;4.70;;;9.40;99.90;;;;;;5094875;28;21027;-82
2024/02/21 06:30:55;;;;;;;10.20;5.30;;;9.40;99.90;;;;;;5103512;28;20520;-82
2024/02/21 06:33:24;;;;;;;8.70;4.47;;;9.40;99.90;;;;;;5102597;28;20886;-80
2024/02/21 06:35:52;;;;;;;12.47;6.70;;;9.30;99.90;;;;;;5091559;28;20462;-80
2024/02/21 06:38:19;;;;;;;7.47;4.67;;;9.30;99.90;;;;;;5096664;28;20503;-81
2024/02/21 06:40:49;;;;;;;10.00;4.23;;;9.30;99.90;;;;;;5096487;28;20479;-80
2024/02/21 06:43:18;;;;;;;10.77;5.00;;;9.30;99.90;;;;;;5108114;28;20473;-79
2024/02/21 06:45:47;;;;;;;7.70;4.07;;;9.30;99.90;;;;;;5107383;28;20458;-81
2024/02/21 06:48:14;;;;;;;10.83;5.03;;;9.40;99.90;;;;;;5101188;28;20984;-81
2024/02/21 06:50:41;;;;;;;6.07;4.43;;;9.40;99.90;;;;;;5104863;28;20568;-81
2024/02/21 06:53:08;;;;;;;8.80;4.30;;;9.40;99.90;;;;;;5116851;28;21010;-81
2024/02/21 06:55:35;;;;;;;7.53;4.63;;;9.40;99.90;;;;;;5112374;28;20540;-80
2024/02/21 06:58:02;;;;;;;10.00;4.37;;;9.40;99.90;;;;;;5103557;28;20472;-84
2024/02/21 07:00:30;;;;;;;7.73;4.40;;;9.40;99.90;;;;;;5103436;28;20441;-81
2024/02/21 07:02:58;;;;;;;9.67;5.07;;;9.40;99.90;;;;;;5112724;28;20521;-82
2024/02/21 07:05:25;;;;;;;7.27;4.93;;;9.40;99.90;;;;;;5113072;28;20448;-82
2024/02/21 07:07:51;;;;;;;7.50;4.10;;;9.50;99.90;;;;;;5114077;28;20472;-81
2024/02/21 07:10:18;;;;;;;9.30;4.77;;;9.50;99.90;;;;;;5120535;28;20534;-81
2024/02/21 07:12:45;;;;;;;8.80;5.70;;;9.60;99.90;;;;;;5117893;28;20557;-83
2024/02/21 07:15:12;;;;;;;8.70;4.33;;;9.50;99.90;;;;;;5121083;28;20516;-80
2024/02/21 07:17:40;;;;;;;8.43;4.40;;;9.60;99.90;;;;;;5114244;28;20452;-82
2024/02/21 07:20:08;;;;;;;9.77;3.57;;;9.50;99.90;;;;;;5108572;28;20796;-82
2024/02/21 07:22:35;;;;;;;9.10;5.20;;;9.50;99.90;;;;;;5107249;28;20469;-82
2024/02/21 07:25:02;;;;;;;10.00;4.70;;;9.60;99.90;;;;;;5104160;28;20443;-81
2024/02/21 07:27:31;;;;;;;9.77;4.00;;;9.60;99.90;;;;;;5104325;28;20543;-82
2024/02/21 07:29:57;;;;;;;12.43;5.23;;;9.60;99.90;;;;;;5110342;28;20456;-81
2024/02/21 07:32:24;;;;;;;12.43;4.90;;;9.70;99.90;;;;;;5105749;28;21073;-80
2024/02/21 07:34:53;;;;;;;10.03;4.33;;;9.70;99.90;;;;;;5100740;28;20490;-80
2024/02/21 07:37:19;;;;;;;9.27;4.67;;;9.70;99.90;;;;;;5095698;28;20870;-81
2024/02/21 07:39:47;;;;;;;14.37;4.70;;;9.70;99.90;;;;;;5094512;28;20511;-80
2024/02/21 07:42:14;;;;;;;6.90;4.47;;;9.80;99.90;;;;;;5108436;28;20949;-79
2024/02/21 07:44:41;;;;;;;6.40;4.10;;;9.80;99.90;;;;;;5117291;28;20451;-79
2024/02/21 07:47:08;;;;;;;7.40;4.70;;;9.90;99.90;;;;;;5126910;28;20466;-82
2024/02/21 07:49:41;;;;;;;12.50;4.30;;;9.90;99.90;;;;;;5125338;28;20446;-81
2024/02/21 07:52:09;;;;;;;14.93;5.27;;;9.80;99.90;;;;;;5120536;28;20483;-84
2024/02/21 07:54:36;;;;;;;9.90;4.63;;;9.80;99.90;;;;;;5117824;28;20484;-81
2024/02/21 07:57:03;;;;;;;11.00;5.80;;;9.90;99.90;;;;;;5128174;28;20488;-85
2024/02/21 07:59:30;;;;;;;8.87;4.50;;;10.00;99.90;;;;;;5126193;28;20506;-84
2024/02/21 08:01:58;;;;;;;11.20;5.13;;;10.00;99.90;;;;;;5117715;28;20502;-83
2024/02/21 08:04:25;;;;;;;9.53;4.67;;;9.90;99.90;;;;;;5115240;28;20456;-83
2024/02/21 08:06:55;;;;;;;10.57;5.47;;;10.00;99.90;;;;;;5104434;28;20443;-85
2024/02/21 08:09:23;;;;;;;11.00;4.60;;;10.00;99.90;;;;;;5099149;28;20457;-84
2024/02/21 08:11:50;;;;;;;9.73;4.50;;;10.00;99.90;;;;;;5099852;28;20481;-85
2024/02/21 08:14:18;;;;;;;7.70;4.40;;;10.00;99.90;;;;;;5098794;28;20493;-85
2024/02/21 08:16:44;;;;;;;6.37;4.23;;;10.10;99.90;;;;;;5098583;28;20444;-79
2024/02/21 08:19:12;;;;;;;5.70;3.70;;;10.10;99.90;;;;;;5101213;28;20947;-79
2024/02/21 08:21:39;;;;;;;38.43;17.30;;;10.10;99.90;;;;;;5099107;28;20570;-79
2024/02/21 08:24:07;;;;;;;9.60;3.87;;;10.20;99.90;;;;;;5101041;28;20529;-80
2024/02/21 08:26:36;;;;;;;7.40;4.40;;;10.10;99.90;;;;;;5101036;28;20453;-79
2024/02/21 08:29:02;;;;;;;7.27;4.43;;;10.20;99.90;;;;;;5099650;28;20468;-81
2024/02/21 08:31:31;;;;;;;7.90;4.13;;;10.10;99.90;;;;;;5097939;28;20478;-79
2024/02/21 08:34:02;;;;;;;8.33;3.90;;;10.20;99.90;;;;;;5098369;28;20548;-79
2024/02/21 08:36:29;;;;;;;8.23;3.97;;;10.10;99.90;;;;;;5088440;28;20449;-81
2024/02/21 08:38:56;;;;;;;8.10;4.10;;;10.20;99.90;;;;;;5094246;28;20476;-80
2024/02/21 08:41:23;;;;;;;4.53;3.10;;;10.20;99.90;;;;;;5095643;28;20992;-82
2024/02/21 08:43:52;;;;;;;5.20;3.80;;;10.40;99.90;;;;;;5097035;28;20535;-79
2024/02/21 08:46:19;;;;;;;8.70;4.07;;;10.20;99.90;;;;;;5084498;28;20452;-80
2024/02/21 08:48:46;;;;;;;7.57;3.60;;;10.20;99.90;;;;;;5074310;28;20911;-79
2024/02/21 08:51:13;;;;;;;9.00;3.83;;;10.30;99.90;;;;;;5074593;28;20465;-81
2024/02/21 08:53:40;;;;;;;5.93;3.60;;;10.40;99.90;;;;;;5086673;28;20489;-79
2024/02/21 08:56:08;;;;;;;6.93;3.83;;;10.50;99.90;;;;;;5093616;28;20535;-79
2024/02/21 08:58:35;;;;;;;9.93;3.93;;;10.50;99.90;;;;;;5095072;28;20566;-79
2024/02/21 09:01:05;;;;;;;9.73;3.63;;;10.40;99.90;;;;;;5094871;28;20450;-78
2024/02/21 09:03:32;;;;;;;7.07;3.60;;;10.30;99.90;;;;;;5094831;28;20453;-81
2024/02/21 09:05:59;;;;;;;10.60;4.03;;;10.10;99.90;;;;;;5094030;28;21009;-79
2024/02/21 09:08:26;;;;;;;6.43;3.57;;;10.10;99.90;;;;;;5091905;28;20456;-79
2024/02/21 09:10:53;;;;;;;6.90;3.23;;;10.10;99.90;;;;;;5085602;28;20465;-78
2024/02/21 09:13:20;;;;;;;8.40;4.30;;;10.20;99.90;;;;;;5093718;28;20501;-79
2024/02/21 09:15:48;;;;;;;6.47;3.17;;;10.00;99.90;;;;;;5095453;28;20572;-79
2024/02/21 09:18:16;;;;;;;10.80;3.50;;;10.00;99.90;;;;;;5100015;28;20483;-79
2024/02/21 09:20:43;;;;;;;9.93;4.23;;;10.20;99.90;;;;;;5099221;28;20453;-79
2024/02/21 09:23:09;;;;;;;10.13;4.50;;;10.20;99.90;;;;;;5091134;28;20543;-79
2024/02/21 09:25:36;;;;;;;10.07;4.80;;;10.00;99.90;;;;;;5082265;28;20533;-81
2024/02/21 09:28:06;;;;;;;10.73;4.00;;;10.00;99.90;;;;;;5086340;28;20536;-78
2024/02/21 09:30:32;;;;;;;6.33;3.70;;;10.00;99.90;;;;;;5101766;28;20463;-79
2024/02/21 09:33:01;;;;;;;11.53;4.90;;;10.00;99.90;;;;;;5098966;28;20476;-79
2024/02/21 09:35:29;;;;;;;12.00;5.33;;;10.00;99.90;;;;;;5097743;28;21100;-78
2024/02/21 09:37:56;;;;;;;12.27;4.70;;;9.90;99.90;;;;;;5100190;28;20907;-80
2024/02/21 09:40:24;;;;;;;9.60;5.00;;;9.80;99.90;;;;;;5097930;28;20553;-79
2024/02/21 09:42:59;;;;;;;11.23;5.13;;;9.80;99.90;;;;;;5098805;28;20531;-80
2024/02/21 09:45:26;;;;;;;11.90;4.50;;;9.70;99.90;;;;;;5093828;28;20580;-80
2024/02/21 09:48:16;;;;;;;8.53;4.23;;;9.70;99.90;;;;;;5099404;28;20514;-79
2024/02/21 09:50:45;;;;;;;14.37;4.43;;;9.70;99.90;;;;;;5098773;28;20536;-80
2024/02/21 09:53:14;;;;;;;12.63;5.93;;;9.70;99.90;;;;;;5097710;28;20546;-79
2024/02/21 09:55:41;;;;;;;13.50;5.73;;;9.60;99.90;;;;;;5096801;28;20489;-77
2024/02/21 09:58:09;;;;;;;10.97;5.27;;;9.60;99.90;;;;;;5097263;28;20462;-80
2024/02/21 10:00:36;;;;;;;11.20;5.40;;;9.70;99.90;;;;;;5095771;28;20822;-80
2024/02/21 10:03:07;;;;;;;11.13;5.60;;;9.50;99.90;;;;;;5094098;28;21094;-78
2024/02/21 10:05:35;;;;;;;17.30;5.93;;;9.50;99.90;;;;;;5095172;28;20455;-80
2024/02/21 10:08:04;;;;;;;10.50;4.67;;;9.50;99.90;;;;;;5096375;28;20486;-83
2024/02/21 10:10:31;;;;;;;10.87;4.50;;;9.50;99.90;;;;;;5094888;28;20543;-78
2024/02/21 10:12:58;;;;;;;11.10;5.17;;;9.70;99.90;;;;;;5094114;28;20874;-80
2024/02/21 10:15:26;;;;;;;14.73;5.27;;;9.90;99.90;;;;;;5094830;28;20492;-79
2024/02/21 10:18:00;;;;;;;18.50;10.00;;;10.10;99.90;;;;;;5091028;28;20469;-78
2024/02/21 10:20:27;;;;;;;12.00;5.60;;;10.10;99.90;;;;;;5076226;28;20453;-79
2024/02/21 10:23:07;;;;;;;9.80;5.13;;;10.20;99.90;;;;;;5093735;28;20565;-78
2024/02/21 10:25:35;;;;;;;10.80;5.87;;;10.20;99.90;;;;;;5092911;28;20440;-82
2024/02/21 10:28:02;;;;;;;12.63;5.30;;;10.20;99.90;;;;;;5093090;28;20456;-80
2024/02/21 10:30:29;;;;;;;13.33;5.90;;;10.30;99.90;;;;;;5093501;28;20453;-79
2024/02/21 10:32:57;;;;;;;13.53;6.80;;;10.50;99.90;;;;;;5091100;28;20480;-79
2024/02/21 10:35:28;;;;;;;12.30;6.00;;;10.70;99.90;;;;;;5096713;28;20521;-79
2024/02/21 10:37:56;;;;;;;9.80;6.50;;;10.80;99.90;;;;;;5096236;28;20469;-80
2024/02/21 10:40:25;;;;;;;12.13;5.40;;;11.00;99.90;;;;;;5096181;28;20459;-78
2024/02/21 10:42:56;;;;;;;15.47;5.47;;;11.10;99.90;;;;;;5096893;28;20480;-78
2024/02/21 10:45:29;;;;;;;10.53;4.03;;;11.20;99.90;;;;;;5097713;28;20895;-79
2024/02/21 10:48:02;;;;;;;8.47;4.10;;;11.00;99.90;;;;;;5097974;28;20450;-80
2024/02/21 10:50:33;;;;;;;5.90;3.67;;;10.90;99.90;;;;;;5100348;28;20650;-79
2024/02/21 10:53:10;;;;;;;7.83;4.23;;;10.80;99.90;;;;;;5112889;28;20469;-81
2024/02/21 10:55:42;;;;;;;10.37;4.00;;;10.80;99.90;;;;;;5112037;28;20580;-79
2024/02/21 10:58:11;;;;;;;4.70;3.20;;;10.90;99.90;;;;;;5100585;28;21198;-79
2024/02/21 11:00:38;;;;;;;7.50;4.07;;;11.10;99.90;;;;;;5092815;28;20538;-79
2024/02/21 11:03:06;;;;;;;9.70;3.77;;;11.00;99.90;;;;;;5086104;28;20484;-79
2024/02/21 11:05:33;;;;;;;11.37;6.10;;;10.90;99.90;;;;;;5077337;28;20546;-78
2024/02/21 11:08:01;;;;;;;5.53;3.50;;;11.00;99.90;;;;;;5093496;28;20451;-80
2024/02/21 11:10:28;;;;;;;4.70;3.27;;;11.30;99.90;;;;;;5096121;28;20454;-78
2024/02/21 11:13:08;;;;;;;7.13;4.17;;;11.50;99.90;;;;;;5096357;28;20470;-80
2024/02/21 11:15:34;;;;;;;5.03;3.70;;;11.40;99.90;;;;;;5095776;28;20519;-79
2024/02/21 11:18:02;;;;;;;10.80;3.67;;;11.50;99.90;;;;;;5099279;28;20449;-81
2024/02/21 11:20:35;;;;;;;6.50;3.63;;;11.60;99.90;;;;;;5104792;28;20446;-80
2024/02/21 11:23:02;;;;;;;8.37;3.80;;;11.60;99.90;;;;;;5088529;28;20471;-79
2024/02/21 11:25:30;;;;;;;10.83;4.60;;;11.60;99.90;;;;;;5086913;28;20942;-77
2024/02/21 11:28:03;;;;;;;7.70;3.83;;;11.60;99.90;;;;;;5095927;28;20500;-80
2024/02/21 11:30:32;;;;;;;6.83;3.97;;;11.90;99.90;;;;;;5096916;28;20539;-79
2024/02/21 11:33:04;;;;;;;6.10;3.60;;;11.90;99.90;;;;;;5097188;28;20922;-80
2024/02/21 11:35:35;;;;;;;5.50;3.50;;;11.70;99.90;;;;;;5096806;28;20505;-80
2024/02/21 11:38:14;;;;;;;9.73;4.87;;;11.80;99.90;;;;;;5097121;28;20466;-80
2024/02/21 11:40:42;;;;;;;5.40;3.97;;;12.00;99.90;;;;;;5095831;28;20454;-80
2024/02/21 11:43:10;;;;;;;6.60;3.73;;;12.20;99.90;;;;;;5088779;28;20484;-80
2024/02/21 11:45:37;;;;;;;6.23;3.80;;;12.70;99.90;;;;;;5102939;28;20526;-79
2024/02/21 11:48:07;;;;;;;11.43;4.27;;;12.90;99.90;;;;;;5103081;28;20448;-79
2024/02/21 11:50:36;;;;;;;5.00;3.90;;;12.90;99.90;;;;;;5103460;28;20541;-80
2024/02/21 11:53:03;;;;;;;9.53;3.30;;;12.60;99.90;;;;;;5082939;28;20481;-79
2024/02/21 11:55:30;;;;;;;4.77;2.87;;;12.60;99.90;;;;;;5076125;28;21035;-80
2024/02/21 11:57:57;;;;;;;10.07;3.70;;;12.30;99.90;;;;;;5093890;28;20814;-79
2024/02/21 12:00:27;;;;;;;9.40;4.40;;;12.30;99.90;;;;;;5097232;28;20468;-80
2024/02/21 12:02:55;;;;;;;7.70;4.80;;;12.40;99.90;;;;;;5096632;28;20478;-81
2024/02/21 12:05:22;;;;;;;9.23;3.53;;;12.40;99.90;;;;;;5095925;28;21909;-80
2024/02/21 12:07:49;;;;;;;8.37;3.40;;;12.50;99.90;;;;;;5095498;28;20458;-80
2024/02/21 12:10:16;;;;;;;6.20;3.50;;;12.60;99.90;;;;;;5096546;28;20459;-80
2024/02/21 12:12:43;;;;;;;10.07;4.40;;;12.60;99.90;;;;;;5095103;28;20472;-80
2024/02/21 12:15:09;;;;;;;5.90;3.10;;;12.70;99.90;;;;;;5093027;28;20864;-79
2024/02/21 12:17:38;;;;;;;11.53;5.03;;;12.80;99.90;;;;;;5096465;28;21036;-81
2024/02/21 12:20:08;;;;;;;9.93;3.40;;;12.90;99.90;;;;;;5095332;28;20459;-79
2024/02/21 12:22:36;;;;;;;6.67;3.40;;;12.90;99.90;;;;;;5096278;28;20567;-80
2024/02/21 12:25:07;;;;;;;9.80;3.27;;;12.80;99.90;;;;;;5096759;28;20951;-78
2024/02/21 12:27:34;;;;;;;6.60;2.80;;;13.00;99.90;;;;;;5090735;28;20453;-81
2024/02/21 12:30:01;;;;;;;7.43;2.60;;;13.20;99.90;;;;;;5076279;28;20451;-80
2024/02/21 12:32:28;;;;;;;6.03;2.33;;;13.10;99.90;;;;;;5087103;28;20906;-80
2024/02/21 12:34:56;;;;;;;10.03;2.77;;;13.10;99.90;;;;;;5095196;28;20456;-80
2024/02/21 12:37:24;;;;;;;6.20;2.70;;;13.10;99.90;;;;;;5094910;28;20473;-82
2024/02/21 12:39:51;;;;;;;6.70;2.83;;;13.20;99.90;;;;;;5096860;28;20525;-79
2024/02/21 12:42:18;;;;;;;5.23;2.70;;;13.30;99.90;;;;;;5095282;28;20477;-80
2024/02/21 12:44:45;;;;;;;9.00;2.80;;;13.30;99.90;;;;;;5096841;28;20546;-82
2024/02/21 12:47:12;;;;;;;5.50;2.70;;;13.20;99.90;;;;;;5094046;28;20910;-80